Pagrindinis puslapis
METAR-TAF:

METAR-TAF

Oro uostai :

Neiva, Kolumbija

platuma: 02-58N, ilguma: 075-18W, Aukštis: 439 m

Dabartinis oras

Ataskaita buvo paskelbta 1 valandą ir 20 minutes, ne 23:00 UTC
Vėjas 5 kt iš Šiaurės/Šiaurės Rytų
Temperatūra 31°C
Drėgmė 46%
Slėgis 1007 hPa
Matomumas 10 km arba daugiau
Mažai debesys ne aukštis 4500 ft
Su prošvaistėmis ne aukštis 20000 ft
Liūtis kaimynystėje

METAR: SKNV 222300Z 02005KT 9999 VCSH FEW045 BKN200 31/18 A2975 RMK VCSH E

Laikas: 19:20 (00:20 UTC)


TAF: trūkstamas

Orai ataskaitas ir orų prognozės (METAR, TAF).

turimą stotys yra geltonos ir raudonos taškus žemėlapyje.

Perkelti pele per norėdami pamatyti stoties vardą.

Tada spustelėkite, norėdami matyti oro stebėjimo ir prognozės.

Norėdami pakeisti žemėlapį: spustelėkite ant žalios mygtukų su juodo kryžiaus žemyn,; žalią mygtuką su brūkšneliu, jei norite nutolinti; arba žalių rodyklių gretimoms žemėlapius.


METAR-TAF: